sensor_id;sensor_type;location;lat;lon;timestamp;P1;durP1;ratioP1;P2;durP2;ratioP2
9330;SDS011;4704;50.470;12.072;2023-04-01T00:02:17;3.75;;;2.80;;
9330;SDS011;4704;50.470;12.072;2023-04-01T00:04:44;3.25;;;2.58;;
9330;SDS011;4704;50.470;12.072;2023-04-01T00:07:12;3.95;;;2.80;;
9330;SDS011;4704;50.470;12.072;2023-04-01T00:09:39;3.75;;;2.90;;
9330;SDS011;4704;50.470;12.072;2023-04-01T00:12:07;2.80;;;2.03;;
9330;SDS011;4704;50.470;12.072;2023-04-01T00:14:35;3.17;;;2.28;;
9330;SDS011;4704;50.470;12.072;2023-04-01T00:17:06;3.72;;;2.45;;
9330;SDS011;4704;50.470;12.072;2023-04-01T00:19:33;3.15;;;2.17;;
9330;SDS011;4704;50.470;12.072;2023-04-01T00:22:01;3.83;;;2.38;;
9330;SDS011;4704;50.470;12.072;2023-04-01T00:24:28;3.55;;;2.25;;
9330;SDS011;4704;50.470;12.072;2023-04-01T00:26:56;2.33;;;1.83;;
9330;SDS011;4704;50.470;12.072;2023-04-01T00:29:24;3.88;;;2.22;;
9330;SDS011;4704;50.470;12.072;2023-04-01T00:31:54;2.85;;;2.17;;
9330;SDS011;4704;50.470;12.072;2023-04-01T00:34:23;2.95;;;2.13;;
9330;SDS011;4704;50.470;12.072;2023-04-01T00:36:51;2.70;;;2.10;;
9330;SDS011;4704;50.470;12.072;2023-04-01T00:39:19;2.60;;;2.05;;
9330;SDS011;4704;50.470;12.072;2023-04-01T00:41:47;2.78;;;1.90;;
9330;SDS011;4704;50.470;12.072;2023-04-01T00:44:16;2.72;;;2.20;;
9330;SDS011;4704;50.470;12.072;2023-04-01T00:46:44;2.03;;;1.83;;
9330;SDS011;4704;50.470;12.072;2023-04-01T00:49:11;2.30;;;1.80;;
9330;SDS011;4704;50.470;12.072;2023-04-01T00:51:41;2.17;;;1.70;;
9330;SDS011;4704;50.470;12.072;2023-04-01T00:54:09;2.42;;;1.80;;
9330;SDS011;4704;50.470;12.072;2023-04-01T00:56:37;2.53;;;1.80;;
9330;SDS011;4704;50.470;12.072;2023-04-01T00:59:07;2.13;;;1.70;;
9330;SDS011;4704;50.470;12.072;2023-04-01T01:01:36;2.20;;;1.60;;
9330;SDS011;4704;50.470;12.072;2023-04-01T01:04:03;2.10;;;1.70;;
9330;SDS011;4704;50.470;12.072;2023-04-01T01:06:35;2.42;;;1.60;;
9330;SDS011;4704;50.470;12.072;2023-04-01T01:11:50;1.80;;;1.48;;
9330;SDS011;4704;50.470;12.072;2023-04-01T01:14:25;2.25;;;1.60;;
9330;SDS011;4704;50.470;12.072;2023-04-01T01:16:58;2.05;;;1.40;;
9330;SDS011;4704;50.470;12.072;2023-04-01T01:22:23;2.00;;;1.30;;
9330;SDS011;4704;50.470;12.072;2023-04-01T01:24:56;2.00;;;1.42;;
9330;SDS011;4704;50.470;12.072;2023-04-01T01:27:30;1.73;;;1.40;;
9330;SDS011;4704;50.470;12.072;2023-04-01T01:35:28;1.95;;;1.40;;
9330;SDS011;4704;50.470;12.072;2023-04-01T01:37:58;1.98;;;1.30;;
9330;SDS011;4704;50.470;12.072;2023-04-01T01:40:27;2.30;;;1.30;;
9330;SDS011;4704;50.470;12.072;2023-04-01T01:42:56;2.22;;;1.60;;
9330;SDS011;4704;50.470;12.072;2023-04-01T01:45:25;1.50;;;1.27;;
9330;SDS011;4704;50.470;12.072;2023-04-01T01:47:53;1.58;;;1.23;;
9330;SDS011;4704;50.470;12.072;2023-04-01T01:50:23;2.30;;;1.30;;
9330;SDS011;4704;50.470;12.072;2023-04-01T01:52:52;1.50;;;1.15;;
9330;SDS011;4704;50.470;12.072;2023-04-01T01:55:27;2.08;;;1.27;;
9330;SDS011;4704;50.470;12.072;2023-04-01T01:57:55;1.80;;;1.10;;
9330;SDS011;4704;50.470;12.072;2023-04-01T02:00:24;1.40;;;1.20;;
9330;SDS011;4704;50.470;12.072;2023-04-01T02:02:52;1.45;;;1.10;;
9330;SDS011;4704;50.470;12.072;2023-04-01T02:05:21;1.73;;;1.25;;
9330;SDS011;4704;50.470;12.072;2023-04-01T02:07:51;1.35;;;1.00;;
9330;SDS011;4704;50.470;12.072;2023-04-01T02:10:21;1.73;;;1.08;;
9330;SDS011;4704;50.470;12.072;2023-04-01T02:12:49;1.38;;;1.23;;
9330;SDS011;4704;50.470;12.072;2023-04-01T02:15:17;1.58;;;1.10;;
9330;SDS011;4704;50.470;12.072;2023-04-01T02:17:46;1.52;;;1.15;;
9330;SDS011;4704;50.470;12.072;2023-04-01T02:20:16;1.48;;;1.13;;
9330;SDS011;4704;50.470;12.072;2023-04-01T02:22:45;2.15;;;1.05;;
9330;SDS011;4704;50.470;12.072;2023-04-01T02:25:14;2.10;;;1.30;;
9330;SDS011;4704;50.470;12.072;2023-04-01T02:27:43;1.17;;;1.00;;
9330;SDS011;4704;50.470;12.072;2023-04-01T02:30:12;1.42;;;1.10;;
9330;SDS011;4704;50.470;12.072;2023-04-01T02:32:39;1.23;;;0.80;;
9330;SDS011;4704;50.470;12.072;2023-04-01T02:35:08;1.33;;;1.10;;
9330;SDS011;4704;50.470;12.072;2023-04-01T02:37:36;1.10;;;1.00;;
9330;SDS011;4704;50.470;12.072;2023-04-01T02:40:04;1.70;;;1.00;;
9330;SDS011;4704;50.470;12.072;2023-04-01T02:42:32;1.67;;;1.10;;
9330;SDS011;4704;50.470;12.072;2023-04-01T02:45:01;1.30;;;1.00;;
9330;SDS011;4704;50.470;12.072;2023-04-01T02:47:29;1.55;;;0.90;;
9330;SDS011;4704;50.470;12.072;2023-04-01T02:49:56;1.20;;;0.82;;
9330;SDS011;4704;50.470;12.072;2023-04-01T02:52:24;1.42;;;0.93;;
9330;SDS011;4704;50.470;12.072;2023-04-01T02:54:51;1.50;;;0.88;;
9330;SDS011;4704;50.470;12.072;2023-04-01T02:57:18;1.25;;;0.90;;
9330;SDS011;4704;50.470;12.072;2023-04-01T02:59:46;1.40;;;0.80;;
9330;SDS011;4704;50.470;12.072;2023-04-01T03:02:15;0.90;;;0.80;;
9330;SDS011;4704;50.470;12.072;2023-04-01T03:04:43;1.30;;;0.90;;
9330;SDS011;4704;50.470;12.072;2023-04-01T03:07:10;0.75;;;0.70;;
9330;SDS011;4704;50.470;12.072;2023-04-01T03:09:38;1.70;;;0.70;;
9330;SDS011;4704;50.470;12.072;2023-04-01T03:12:05;1.45;;;0.90;;
9330;SDS011;4704;50.470;12.072;2023-04-01T03:14:33;0.95;;;0.80;;
9330;SDS011;4704;50.470;12.072;2023-04-01T03:17:00;1.10;;;0.90;;
9330;SDS011;4704;50.470;12.072;2023-04-01T03:19:29;1.20;;;0.80;;
9330;SDS011;4704;50.470;12.072;2023-04-01T03:21:56;0.88;;;0.70;;
9330;SDS011;4704;50.470;12.072;2023-04-01T03:24:24;1.40;;;0.93;;
9330;SDS011;4704;50.470;12.072;2023-04-01T03:26:51;0.65;;;0.65;;
9330;SDS011;4704;50.470;12.072;2023-04-01T03:29:18;1.17;;;0.80;;
9330;SDS011;4704;50.470;12.072;2023-04-01T03:31:45;1.05;;;0.77;;
9330;SDS011;4704;50.470;12.072;2023-04-01T03:34:13;0.70;;;0.63;;
9330;SDS011;4704;50.470;12.072;2023-04-01T03:36:41;1.13;;;0.80;;
9330;SDS011;4704;50.470;12.072;2023-04-01T03:39:08;0.90;;;0.70;;
9330;SDS011;4704;50.470;12.072;2023-04-01T03:41:36;0.90;;;0.70;;
9330;SDS011;4704;50.470;12.072;2023-04-01T03:44:04;1.75;;;1.00;;
9330;SDS011;4704;50.470;12.072;2023-04-01T03:46:31;0.82;;;0.80;;
9330;SDS011;4704;50.470;12.072;2023-04-01T03:48:59;1.20;;;0.88;;
9330;SDS011;4704;50.470;12.072;2023-04-01T03:51:26;1.10;;;0.88;;
9330;SDS011;4704;50.470;12.072;2023-04-01T03:53:55;1.00;;;0.80;;
9330;SDS011;4704;50.470;12.072;2023-04-01T03:56:22;0.88;;;0.57;;
9330;SDS011;4704;50.470;12.072;2023-04-01T03:58:49;1.33;;;0.68;;
9330;SDS011;4704;50.470;12.072;2023-04-01T04:01:17;1.50;;;0.90;;
9330;SDS011;4704;50.470;12.072;2023-04-01T04:03:46;1.20;;;0.70;;
9330;SDS011;4704;50.470;12.072;2023-04-01T04:06:14;0.73;;;0.60;;
9330;SDS011;4704;50.470;12.072;2023-04-01T04:08:43;0.70;;;0.70;;
9330;SDS011;4704;50.470;12.072;2023-04-01T04:11:12;0.77;;;0.65;;
9330;SDS011;4704;50.470;12.072;2023-04-01T04:13:39;0.85;;;0.60;;
9330;SDS011;4704;50.470;12.072;2023-04-01T04:16:07;0.82;;;0.65;;
9330;SDS011;4704;50.470;12.072;2023-04-01T04:18:34;0.80;;;0.65;;
9330;SDS011;4704;50.470;12.072;2023-04-01T04:21:02;1.17;;;0.98;;
9330;SDS011;4704;50.470;12.072;2023-04-01T04:23:30;0.77;;;0.60;;
9330;SDS011;4704;50.470;12.072;2023-04-01T04:25:59;0.90;;;0.57;;
9330;SDS011;4704;50.470;12.072;2023-04-01T04:28:28;0.73;;;0.60;;
9330;SDS011;4704;50.470;12.072;2023-04-01T04:30:55;1.15;;;0.70;;
9330;SDS011;4704;50.470;12.072;2023-04-01T04:33:23;1.33;;;0.68;;
9330;SDS011;4704;50.470;12.072;2023-04-01T04:35:51;0.80;;;0.40;;
9330;SDS011;4704;50.470;12.072;2023-04-01T04:38:18;0.85;;;0.68;;
9330;SDS011;4704;50.470;12.072;2023-04-01T04:40:45;0.70;;;0.70;;
9330;SDS011;4704;50.470;12.072;2023-04-01T04:43:13;0.80;;;0.77;;
9330;SDS011;4704;50.470;12.072;2023-04-01T04:45:42;1.27;;;0.60;;
9330;SDS011;4704;50.470;12.072;2023-04-01T04:48:10;0.95;;;0.70;;
9330;SDS011;4704;50.470;12.072;2023-04-01T04:50:41;0.80;;;0.70;;
9330;SDS011;4704;50.470;12.072;2023-04-01T04:53:09;0.82;;;0.57;;
9330;SDS011;4704;50.470;12.072;2023-04-01T04:55:36;1.20;;;0.70;;
9330;SDS011;4704;50.470;12.072;2023-04-01T04:58:03;1.23;;;0.88;;
9330;SDS011;4704;50.470;12.072;2023-04-01T05:00:31;1.10;;;0.70;;
9330;SDS011;4704;50.470;12.072;2023-04-01T05:03:00;0.95;;;0.70;;
9330;SDS011;4704;50.470;12.072;2023-04-01T05:05:27;0.73;;;0.60;;
9330;SDS011;4704;50.470;12.072;2023-04-01T05:07:54;0.70;;;0.63;;
9330;SDS011;4704;50.470;12.072;2023-04-01T05:10:22;0.70;;;0.50;;
9330;SDS011;4704;50.470;12.072;2023-04-01T05:12:49;0.70;;;0.50;;
9330;SDS011;4704;50.470;12.072;2023-04-01T05:15:16;0.57;;;0.50;;
9330;SDS011;4704;50.470;12.072;2023-04-01T05:17:44;0.70;;;0.60;;
9330;SDS011;4704;50.470;12.072;2023-04-01T05:20:13;0.95;;;0.60;;
9330;SDS011;4704;50.470;12.072;2023-04-01T05:22:40;1.45;;;0.50;;
9330;SDS011;4704;50.470;12.072;2023-04-01T05:25:08;0.63;;;0.52;;
9330;SDS011;4704;50.470;12.072;2023-04-01T05:27:35;0.82;;;0.60;;
9330;SDS011;4704;50.470;12.072;2023-04-01T05:30:03;0.70;;;0.57;;
9330;SDS011;4704;50.470;12.072;2023-04-01T05:32:31;0.80;;;0.50;;
9330;SDS011;4704;50.470;12.072;2023-04-01T05:34:58;0.57;;;0.50;;
9330;SDS011;4704;50.470;12.072;2023-04-01T05:37:27;0.90;;;0.50;;
9330;SDS011;4704;50.470;12.072;2023-04-01T05:39:54;0.85;;;0.60;;
9330;SDS011;4704;50.470;12.072;2023-04-01T05:42:23;0.52;;;0.50;;
9330;SDS011;4704;50.470;12.072;2023-04-01T05:44:51;1.48;;;0.63;;
9330;SDS011;4704;50.470;12.072;2023-04-01T05:47:18;0.80;;;0.40;;
9330;SDS011;4704;50.470;12.072;2023-04-01T05:49:45;0.85;;;0.55;;
9330;SDS011;4704;50.470;12.072;2023-04-01T05:52:13;0.70;;;0.60;;
9330;SDS011;4704;50.470;12.072;2023-04-01T05:54:42;1.63;;;0.50;;
9330;SDS011;4704;50.470;12.072;2023-04-01T05:57:10;0.73;;;0.52;;
9330;SDS011;4704;50.470;12.072;2023-04-01T05:59:37;1.05;;;0.52;;
9330;SDS011;4704;50.470;12.072;2023-04-01T06:02:04;1.40;;;0.77;;
9330;SDS011;4704;50.470;12.072;2023-04-01T06:04:32;0.95;;;0.50;;
9330;SDS011;4704;50.470;12.072;2023-04-01T06:07:04;0.85;;;0.50;;
9330;SDS011;4704;50.470;12.072;2023-04-01T06:09:32;0.55;;;0.52;;
9330;SDS011;4704;50.470;12.072;2023-04-01T06:14:48;0.77;;;0.52;;
9330;SDS011;4704;50.470;12.072;2023-04-01T06:17:23;0.63;;;0.45;;
9330;SDS011;4704;50.470;12.072;2023-04-01T06:19:54;0.55;;;0.55;;
9330;SDS011;4704;50.470;12.072;2023-04-01T06:22:29;0.55;;;0.50;;
9330;SDS011;4704;50.470;12.072;2023-04-01T06:25:10;0.77;;;0.47;;
9330;SDS011;4704;50.470;12.072;2023-04-01T06:27:48;0.50;;;0.40;;
9330;SDS011;4704;50.470;12.072;2023-04-01T06:30:29;1.35;;;0.50;;
9330;SDS011;4704;50.470;12.072;2023-04-01T06:33:01;1.30;;;0.75;;
9330;SDS011;4704;50.470;12.072;2023-04-01T06:35:34;0.75;;;0.40;;
9330;SDS011;4704;50.470;12.072;2023-04-01T06:38:28;0.60;;;0.40;;
9330;SDS011;4704;50.470;12.072;2023-04-01T06:43:50;0.50;;;0.50;;
9330;SDS011;4704;50.470;12.072;2023-04-01T06:46:26;0.90;;;0.50;;
9330;SDS011;4704;50.470;12.072;2023-04-01T06:51:43;0.90;;;0.60;;
9330;SDS011;4704;50.470;12.072;2023-04-01T06:54:15;0.68;;;0.50;;
9330;SDS011;4704;50.470;12.072;2023-04-01T06:56:45;0.50;;;0.40;;
9330;SDS011;4704;50.470;12.072;2023-04-01T06:59:15;0.45;;;0.32;;
9330;SDS011;4704;50.470;12.072;2023-04-01T07:01:47;1.30;;;0.60;;
9330;SDS011;4704;50.470;12.072;2023-04-01T07:04:17;0.70;;;0.50;;
9330;SDS011;4704;50.470;12.072;2023-04-01T07:06:47;0.50;;;0.40;;
9330;SDS011;4704;50.470;12.072;2023-04-01T07:09:16;0.47;;;0.40;;
9330;SDS011;4704;50.470;12.072;2023-04-01T07:11:45;1.13;;;0.50;;
9330;SDS011;4704;50.470;12.072;2023-04-01T07:14:13;0.80;;;0.43;;
9330;SDS011;4704;50.470;12.072;2023-04-01T07:16:46;0.60;;;0.50;;
9330;SDS011;4704;50.470;12.072;2023-04-01T07:19:17;0.50;;;0.47;;
9330;SDS011;4704;50.470;12.072;2023-04-01T07:21:46;0.98;;;0.55;;
9330;SDS011;4704;50.470;12.072;2023-04-01T07:24:16;0.60;;;0.40;;
9330;SDS011;4704;50.470;12.072;2023-04-01T07:26:46;1.10;;;0.47;;
9330;SDS011;4704;50.470;12.072;2023-04-01T07:29:14;0.70;;;0.50;;
9330;SDS011;4704;50.470;12.072;2023-04-01T07:31:49;0.90;;;0.40;;
9330;SDS011;4704;50.470;12.072;2023-04-01T07:34:22;0.95;;;0.40;;
9330;SDS011;4704;50.470;12.072;2023-04-01T07:36:52;0.40;;;0.35;;
9330;SDS011;4704;50.470;12.072;2023-04-01T07:39:25;1.45;;;0.50;;
9330;SDS011;4704;50.470;12.072;2023-04-01T07:41:55;0.43;;;0.40;;
9330;SDS011;4704;50.470;12.072;2023-04-01T07:44:26;0.88;;;0.40;;
9330;SDS011;4704;50.470;12.072;2023-04-01T07:47:09;1.25;;;0.50;;
9330;SDS011;4704;50.470;12.072;2023-04-01T07:49:40;0.60;;;0.40;;
9330;SDS011;4704;50.470;12.072;2023-04-01T07:52:12;0.52;;;0.30;;
9330;SDS011;4704;50.470;12.072;2023-04-01T07:54:44;0.55;;;0.50;;
9330;SDS011;4704;50.470;12.072;2023-04-01T07:57:15;0.93;;;0.60;;
9330;SDS011;4704;50.470;12.072;2023-04-01T07:59:47;1.55;;;0.50;;
9330;SDS011;4704;50.470;12.072;2023-04-01T08:02:22;0.70;;;0.60;;
9330;SDS011;4704;50.470;12.072;2023-04-01T08:04:55;1.75;;;0.40;;
9330;SDS011;4704;50.470;12.072;2023-04-01T08:07:25;1.30;;;0.40;;
9330;SDS011;4704;50.470;12.072;2023-04-01T08:09:55;1.00;;;0.40;;
9330;SDS011;4704;50.470;12.072;2023-04-01T08:12:28;1.60;;;0.60;;
9330;SDS011;4704;50.470;12.072;2023-04-01T08:15:02;1.45;;;0.50;;
9330;SDS011;4704;50.470;12.072;2023-04-01T08:17:35;0.82;;;0.22;;
9330;SDS011;4704;50.470;12.072;2023-04-01T08:20:08;2.05;;;0.38;;
9330;SDS011;4704;50.470;12.072;2023-04-01T08:22:39;1.10;;;0.45;;
9330;SDS011;4704;50.470;12.072;2023-04-01T08:25:09;0.85;;;0.40;;
9330;SDS011;4704;50.470;12.072;2023-04-01T08:27:37;0.98;;;0.40;;
9330;SDS011;4704;50.470;12.072;2023-04-01T08:30:15;1.17;;;0.40;;
9330;SDS011;4704;50.470;12.072;2023-04-01T08:32:46;0.47;;;0.38;;
9330;SDS011;4704;50.470;12.072;2023-04-01T08:35:14;0.63;;;0.45;;
9330;SDS011;4704;50.470;12.072;2023-04-01T08:37:44;1.45;;;0.45;;
9330;SDS011;4704;50.470;12.072;2023-04-01T08:43:02;0.70;;;0.30;;
9330;SDS011;4704;50.470;12.072;2023-04-01T08:45:44;0.60;;;0.40;;
9330;SDS011;4704;50.470;12.072;2023-04-01T08:48:20;0.60;;;0.28;;
9330;SDS011;4704;50.470;12.072;2023-04-01T08:50:56;0.50;;;0.50;;
9330;SDS011;4704;50.470;12.072;2023-04-01T08:53:35;0.40;;;0.40;;
9330;SDS011;4704;50.470;12.072;2023-04-01T08:56:06;0.60;;;0.40;;
9330;SDS011;4704;50.470;12.072;2023-04-01T08:58:46;0.88;;;0.43;;
9330;SDS011;4704;50.470;12.072;2023-04-01T09:01:18;0.63;;;0.32;;
9330;SDS011;4704;50.470;12.072;2023-04-01T09:06:33;0.40;;;0.30;;
9330;SDS011;4704;50.470;12.072;2023-04-01T09:09:09;0.50;;;0.40;;
9330;SDS011;4704;50.470;12.072;2023-04-01T09:11:44;1.20;;;0.30;;
9330;SDS011;4704;50.470;12.072;2023-04-01T09:14:27;1.13;;;0.40;;
9330;SDS011;4704;50.470;12.072;2023-04-01T09:19:59;0.75;;;0.40;;
9330;SDS011;4704;50.470;12.072;2023-04-01T09:22:35;0.47;;;0.32;;
9330;SDS011;4704;50.470;12.072;2023-04-01T09:25:24;0.32;;;0.30;;
9330;SDS011;4704;50.470;12.072;2023-04-01T09:27:56;0.47;;;0.30;;
9330;SDS011;4704;50.470;12.072;2023-04-01T09:30:34;0.30;;;0.30;;
9330;SDS011;4704;50.470;12.072;2023-04-01T09:33:17;0.82;;;0.52;;
9330;SDS011;4704;50.470;12.072;2023-04-01T09:35:50;0.52;;;0.40;;
9330;SDS011;4704;50.470;12.072;2023-04-01T09:38:29;0.47;;;0.30;;
9330;SDS011;4704;50.470;12.072;2023-04-01T09:40:57;0.52;;;0.35;;
9330;SDS011;4704;50.470;12.072;2023-04-01T09:43:26;0.88;;;0.40;;
9330;SDS011;4704;50.470;12.072;2023-04-01T09:45:57;0.40;;;0.30;;
9330;SDS011;4704;50.470;12.072;2023-04-01T09:48:31;0.45;;;0.20;;
9330;SDS011;4704;50.470;12.072;2023-04-01T09:51:05;1.15;;;0.30;;
9330;SDS011;4704;50.470;12.072;2023-04-01T09:53:40;1.25;;;0.50;;
9330;SDS011;4704;50.470;12.072;2023-04-01T10:13:23;0.60;;;0.38;;
9330;SDS011;4704;50.470;12.072;2023-04-01T10:15:57;1.95;;;0.20;;
9330;SDS011;4704;50.470;12.072;2023-04-01T10:18:35;0.57;;;0.30;;
9330;SDS011;4704;50.470;12.072;2023-04-01T10:21:22;1.40;;;0.20;;
9330;SDS011;4704;50.470;12.072;2023-04-01T10:23:56;0.63;;;0.40;;
9330;SDS011;4704;50.470;12.072;2023-04-01T10:26:32;2.05;;;0.68;;
9330;SDS011;4704;50.470;12.072;2023-04-01T10:32:01;1.08;;;0.32;;
9330;SDS011;4704;50.470;12.072;2023-04-01T10:34:40;1.40;;;0.50;;
9330;SDS011;4704;50.470;12.072;2023-04-01T10:37:15;1.20;;;0.47;;
9330;SDS011;4704;50.470;12.072;2023-04-01T10:42:43;1.02;;;0.40;;
9330;SDS011;4704;50.470;12.072;2023-04-01T10:45:28;0.73;;;0.52;;
9330;SDS011;4704;50.470;12.072;2023-04-01T10:48:04;0.50;;;0.40;;
9330;SDS011;4704;50.470;12.072;2023-04-01T10:50:47;0.60;;;0.50;;
9330;SDS011;4704;50.470;12.072;2023-04-01T10:53:30;1.52;;;0.75;;
9330;SDS011;4704;50.470;12.072;2023-04-01T10:58:55;0.65;;;0.60;;
9330;SDS011;4704;50.470;12.072;2023-04-01T11:01:32;1.52;;;0.47;;
9330;SDS011;4704;50.470;12.072;2023-04-01T11:04:23;0.65;;;0.40;;
9330;SDS011;4704;50.470;12.072;2023-04-01T11:12:52;0.40;;;0.35;;
9330;SDS011;4704;50.470;12.072;2023-04-01T11:15:33;0.65;;;0.40;;
9330;SDS011;4704;50.470;12.072;2023-04-01T11:23:48;0.70;;;0.38;;
9330;SDS011;4704;50.470;12.072;2023-04-01T11:26:21;0.75;;;0.43;;
9330;SDS011;4704;50.470;12.072;2023-04-01T11:29:03;0.80;;;0.60;;
9330;SDS011;4704;50.470;12.072;2023-04-01T11:31:38;0.63;;;0.47;;
9330;SDS011;4704;50.470;12.072;2023-04-01T11:34:16;0.60;;;0.60;;
9330;SDS011;4704;50.470;12.072;2023-04-01T11:36:51;0.98;;;0.55;;
9330;SDS011;4704;50.470;12.072;2023-04-01T11:39:27;0.68;;;0.55;;
9330;SDS011;4704;50.470;12.072;2023-04-01T11:42:01;0.38;;;0.38;;
9330;SDS011;4704;50.470;12.072;2023-04-01T11:44:32;1.48;;;0.40;;
9330;SDS011;4704;50.470;12.072;2023-04-01T11:47:10;1.48;;;0.43;;
9330;SDS011;4704;50.470;12.072;2023-04-01T11:49:52;0.73;;;0.40;;
9330;SDS011;4704;50.470;12.072;2023-04-01T11:52:28;0.60;;;0.50;;
9330;SDS011;4704;50.470;12.072;2023-04-01T11:55:10;0.88;;;0.50;;
9330;SDS011;4704;50.470;12.072;2023-04-01T11:57:54;0.77;;;0.50;;
9330;SDS011;4704;50.470;12.072;2023-04-01T12:00:26;0.68;;;0.50;;
9330;SDS011;4704;50.470;12.072;2023-04-01T12:03:04;0.60;;;0.40;;
9330;SDS011;4704;50.470;12.072;2023-04-01T12:05:39;0.65;;;0.45;;
9330;SDS011;4704;50.470;12.072;2023-04-01T12:08:12;1.38;;;0.50;;
9330;SDS011;4704;50.470;12.072;2023-04-01T12:10:44;0.90;;;0.30;;
9330;SDS011;4704;50.470;12.072;2023-04-01T12:13:17;0.52;;;0.40;;
9330;SDS011;4704;50.470;12.072;2023-04-01T12:15:52;0.47;;;0.40;;
9330;SDS011;4704;50.470;12.072;2023-04-01T12:18:22;1.40;;;0.60;;
9330;SDS011;4704;50.470;12.072;2023-04-01T12:20:53;0.60;;;0.40;;
9330;SDS011;4704;50.470;12.072;2023-04-01T12:23:28;0.68;;;0.45;;
9330;SDS011;4704;50.470;12.072;2023-04-01T12:26:06;0.63;;;0.40;;
9330;SDS011;4704;50.470;12.072;2023-04-01T12:28:41;0.90;;;0.38;;
9330;SDS011;4704;50.470;12.072;2023-04-01T12:31:15;0.60;;;0.40;;
9330;SDS011;4704;50.470;12.072;2023-04-01T12:33:48;0.30;;;0.30;;
9330;SDS011;4704;50.470;12.072;2023-04-01T12:36:19;1.00;;;0.50;;
9330;SDS011;4704;50.470;12.072;2023-04-01T12:38:54;1.70;;;0.50;;
9330;SDS011;4704;50.470;12.072;2023-04-01T12:41:32;0.63;;;0.45;;
9330;SDS011;4704;50.470;12.072;2023-04-01T12:44:06;0.50;;;0.40;;
9330;SDS011;4704;50.470;12.072;2023-04-01T12:46:39;2.05;;;0.60;;
9330;SDS011;4704;50.470;12.072;2023-04-01T12:49:21;0.50;;;0.30;;
9330;SDS011;4704;50.470;12.072;2023-04-01T12:51:55;0.80;;;0.40;;
9330;SDS011;4704;50.470;12.072;2023-04-01T12:57:19;0.80;;;0.40;;
9330;SDS011;4704;50.470;12.072;2023-04-01T12:59:53;0.30;;;0.30;;
9330;SDS011;4704;50.470;12.072;2023-04-01T13:02:31;0.65;;;0.43;;
9330;SDS011;4704;50.470;12.072;2023-04-01T13:05:19;0.43;;;0.40;;
9330;SDS011;4704;50.470;12.072;2023-04-01T13:07:56;0.52;;;0.50;;
9330;SDS011;4704;50.470;12.072;2023-04-01T13:10:27;2.08;;;0.40;;
9330;SDS011;4704;50.470;12.072;2023-04-01T13:13:08;0.40;;;0.40;;
9330;SDS011;4704;50.470;12.072;2023-04-01T13:15:41;0.45;;;0.40;;
9330;SDS011;4704;50.470;12.072;2023-04-01T13:18:17;0.35;;;0.35;;
9330;SDS011;4704;50.470;12.072;2023-04-01T13:20:49;0.32;;;0.32;;
9330;SDS011;4704;50.470;12.072;2023-04-01T13:23:24;0.30;;;0.30;;
9330;SDS011;4704;50.470;12.072;2023-04-01T13:25:54;0.68;;;0.35;;
9330;SDS011;4704;50.470;12.072;2023-04-01T13:28:27;1.05;;;0.40;;
9330;SDS011;4704;50.470;12.072;2023-04-01T13:30:57;1.20;;;0.30;;
9330;SDS011;4704;50.470;12.072;2023-04-01T13:33:27;0.50;;;0.40;;
9330;SDS011;4704;50.470;12.072;2023-04-01T13:36:01;0.82;;;0.40;;
9330;SDS011;4704;50.470;12.072;2023-04-01T13:38:44;0.70;;;0.40;;
9330;SDS011;4704;50.470;12.072;2023-04-01T13:41:18;1.60;;;0.50;;
9330;SDS011;4704;50.470;12.072;2023-04-01T13:43:52;0.40;;;0.40;;
9330;SDS011;4704;50.470;12.072;2023-04-01T13:46:37;0.40;;;0.40;;
9330;SDS011;4704;50.470;12.072;2023-04-01T13:49:08;1.92;;;0.38;;
9330;SDS011;4704;50.470;12.072;2023-04-01T13:54:37;0.38;;;0.38;;
9330;SDS011;4704;50.470;12.072;2023-04-01T13:57:16;1.63;;;0.30;;
9330;SDS011;4704;50.470;12.072;2023-04-01T13:59:55;0.40;;;0.30;;
9330;SDS011;4704;50.470;12.072;2023-04-01T14:02:30;0.50;;;0.30;;
9330;SDS011;4704;50.470;12.072;2023-04-01T14:05:12;0.82;;;0.38;;
9330;SDS011;4704;50.470;12.072;2023-04-01T14:07:47;0.73;;;0.30;;
9330;SDS011;4704;50.470;12.072;2023-04-01T14:10:18;1.40;;;0.35;;
9330;SDS011;4704;50.470;12.072;2023-04-01T14:12:47;0.95;;;0.30;;
9330;SDS011;4704;50.470;12.072;2023-04-01T14:15:25;0.65;;;0.22;;
9330;SDS011;4704;50.470;12.072;2023-04-01T14:18:09;0.57;;;0.30;;
9330;SDS011;4704;50.470;12.072;2023-04-01T14:20:39;0.57;;;0.40;;
9330;SDS011;4704;50.470;12.072;2023-04-01T14:23:17;0.52;;;0.30;;
9330;SDS011;4704;50.470;12.072;2023-04-01T14:25:54;1.65;;;0.38;;
9330;SDS011;4704;50.470;12.072;2023-04-01T14:28:25;0.73;;;0.30;;
9330;SDS011;4704;50.470;12.072;2023-04-01T14:31:09;0.40;;;0.30;;
9330;SDS011;4704;50.470;12.072;2023-04-01T14:33:41;0.77;;;0.30;;
9330;SDS011;4704;50.470;12.072;2023-04-01T14:36:25;0.47;;;0.25;;
9330;SDS011;4704;50.470;12.072;2023-04-01T14:38:59;1.23;;;0.30;;
9330;SDS011;4704;50.470;12.072;2023-04-01T14:41:31;0.32;;;0.30;;
9330;SDS011;4704;50.470;12.072;2023-04-01T14:44:11;0.60;;;0.40;;
9330;SDS011;4704;50.470;12.072;2023-04-01T14:46:52;0.77;;;0.60;;
9330;SDS011;4704;50.470;12.072;2023-04-01T14:49:30;0.70;;;0.30;;
9330;SDS011;4704;50.470;12.072;2023-04-01T14:52:04;0.70;;;0.30;;
9330;SDS011;4704;50.470;12.072;2023-04-01T14:54:32;0.60;;;0.38;;
9330;SDS011;4704;50.470;12.072;2023-04-01T14:57:05;0.73;;;0.30;;
9330;SDS011;4704;50.470;12.072;2023-04-01T14:59:39;1.35;;;0.50;;
9330;SDS011;4704;50.470;12.072;2023-04-01T15:02:11;1.33;;;0.40;;
9330;SDS011;4704;50.470;12.072;2023-04-01T15:04:53;1.02;;;0.38;;
9330;SDS011;4704;50.470;12.072;2023-04-01T15:07:42;0.70;;;0.30;;
9330;SDS011;4704;50.470;12.072;2023-04-01T15:10:21;0.40;;;0.40;;
9330;SDS011;4704;50.470;12.072;2023-04-01T15:12:52;0.40;;;0.30;;
9330;SDS011;4704;50.470;12.072;2023-04-01T15:15:28;0.45;;;0.43;;
9330;SDS011;4704;50.470;12.072;2023-04-01T15:18:05;0.60;;;0.47;;
9330;SDS011;4704;50.470;12.072;2023-04-01T15:20:41;1.00;;;0.30;;
9330;SDS011;4704;50.470;12.072;2023-04-01T15:28:36;0.47;;;0.30;;
9330;SDS011;4704;50.470;12.072;2023-04-01T15:31:07;0.40;;;0.40;;
9330;SDS011;4704;50.470;12.072;2023-04-01T15:33:43;0.40;;;0.30;;
9330;SDS011;4704;50.470;12.072;2023-04-01T15:36:16;0.90;;;0.30;;
9330;SDS011;4704;50.470;12.072;2023-04-01T15:38:47;0.30;;;0.30;;
9330;SDS011;4704;50.470;12.072;2023-04-01T15:41:16;0.40;;;0.40;;
9330;SDS011;4704;50.470;12.072;2023-04-01T15:43:44;0.73;;;0.40;;
9330;SDS011;4704;50.470;12.072;2023-04-01T15:46:22;0.40;;;0.40;;
9330;SDS011;4704;50.470;12.072;2023-04-01T15:48:57;0.38;;;0.38;;
9330;SDS011;4704;50.470;12.072;2023-04-01T15:51:31;0.40;;;0.40;;
9330;SDS011;4704;50.470;12.072;2023-04-01T15:57:06;0.38;;;0.30;;
9330;SDS011;4704;50.470;12.072;2023-04-01T15:59:47;0.63;;;0.30;;
9330;SDS011;4704;50.470;12.072;2023-04-01T16:02:17;1.65;;;0.52;;
9330;SDS011;4704;50.470;12.072;2023-04-01T16:04:49;0.45;;;0.30;;
9330;SDS011;4704;50.470;12.072;2023-04-01T16:07:21;0.52;;;0.40;;
9330;SDS011;4704;50.470;12.072;2023-04-01T16:09:55;0.45;;;0.40;;
9330;SDS011;4704;50.470;12.072;2023-04-01T16:12:29;1.25;;;0.40;;
9330;SDS011;4704;50.470;12.072;2023-04-01T16:15:04;0.47;;;0.32;;
9330;SDS011;4704;50.470;12.072;2023-04-01T16:17:49;0.50;;;0.40;;
9330;SDS011;4704;50.470;12.072;2023-04-01T16:20:23;0.82;;;0.40;;
9330;SDS011;4704;50.470;12.072;2023-04-01T16:22:55;0.50;;;0.35;;
9330;SDS011;4704;50.470;12.072;2023-04-01T16:25:26;0.50;;;0.50;;
9330;SDS011;4704;50.470;12.072;2023-04-01T16:27:58;0.60;;;0.55;;
9330;SDS011;4704;50.470;12.072;2023-04-01T16:30:35;0.50;;;0.30;;
9330;SDS011;4704;50.470;12.072;2023-04-01T16:33:03;0.80;;;0.40;;
9330;SDS011;4704;50.470;12.072;2023-04-01T16:35:37;0.40;;;0.40;;
9330;SDS011;4704;50.470;12.072;2023-04-01T16:38:09;0.47;;;0.47;;
9330;SDS011;4704;50.470;12.072;2023-04-01T16:40:44;0.85;;;0.30;;
9330;SDS011;4704;50.470;12.072;2023-04-01T16:43:16;0.50;;;0.40;;
9330;SDS011;4704;50.470;12.072;2023-04-01T16:45:51;0.30;;;0.30;;
9330;SDS011;4704;50.470;12.072;2023-04-01T16:48:20;0.40;;;0.40;;
9330;SDS011;4704;50.470;12.072;2023-04-01T16:50:53;0.47;;;0.45;;